Time;durP1;ratioP1;P1;durP2;ratioP2;P2;SDS_P1;SDS_P2;PMS_P1;PMS_P2;Temp;Humidity;BMP_temperature;BMP_pressure;BME280_temperature;BME280_humidity;BME280_pressure;Samples;Min_cycle;Max_cycle;Signal;HPM_P1;HPM_P2
2023/02/13 00:02:13;;;;;;;;;36.75;24.50;;;;;5.61;100.00;103216.41;5035580;28;74368;-78
2023/02/13 00:04:38;;;;;;;;;29.50;23.25;;;;;5.60;100.00;103216.34;5036701;28;45391;-78
2023/02/13 00:07:03;;;;;;;;;30.00;25.25;;;;;5.58;100.00;103207.66;5037061;28;45445;-78
2023/02/13 00:09:29;;;;;;;;;31.50;25.25;;;;;5.57;100.00;103205.91;5044650;28;45443;-79
2023/02/13 00:11:54;;;;;;;;;31.75;29.50;;;;;5.58;100.00;103203.38;5044936;28;49961;-78
2023/02/13 00:14:20;;;;;;;;;22.00;16.25;;;;;5.54;100.00;103209.28;5037426;28;67328;-78
2023/02/13 00:16:45;;;;;;;;;32.50;27.50;;;;;5.50;100.00;103199.69;5037346;28;45390;-78
2023/02/13 00:19:10;;;;;;;;;31.25;26.50;;;;;5.52;100.00;103208.34;5036111;28;66112;-78
2023/02/13 00:21:36;;;;;;;;;48.50;32.75;;;;;5.46;100.00;103192.66;5036271;28;66843;-78
2023/02/13 00:24:01;;;;;;;;;39.50;29.50;;;;;5.46;100.00;103195.25;5036924;28;45332;-78
2023/02/13 00:26:26;;;;;;;;;39.50;30.75;;;;;5.39;100.00;103196.75;5019026;28;45395;-78
2023/02/13 00:28:52;;;;;;;;;16.50;5.25;;;;;5.38;100.00;103200.16;5036215;28;65523;-78
2023/02/13 00:31:20;;;;;;;;;43.75;30.00;;;;;5.36;100.00;103200.94;5036242;28;45319;-81
2023/02/13 00:33:46;;;;;;;;;43.00;29.75;;;;;5.32;100.00;103192.22;5036644;28;45861;-78
2023/02/13 00:36:17;;;;;;;;;40.00;31.00;;;;;5.28;100.00;103195.53;5036870;28;45485;-78
2023/02/13 00:38:43;;;;;;;;;49.00;31.25;;;;;5.24;100.00;103199.72;5036465;28;45489;-78
2023/02/13 00:41:09;;;;;;;;;39.75;30.25;;;;;5.20;100.00;103203.03;5018705;28;46609;-78
2023/02/13 00:43:35;;;;;;;;;49.00;31.50;;;;;5.16;100.00;103203.75;5036695;28;45362;-78
2023/02/13 00:46:01;;;;;;;;;46.75;33.75;;;;;5.16;100.00;103206.34;5018872;28;45779;-78
2023/02/13 00:48:28;;;;;;;;;48.50;35.00;;;;;5.17;100.00;103207.22;5018624;28;45503;-78
2023/02/13 00:50:53;;;;;;;;;50.25;33.25;;;;;5.15;100.00;103193.38;5018487;28;46449;-77
2023/02/13 00:53:20;;;;;;;;;48.25;33.25;;;;;5.15;100.00;103201.13;5035598;28;58874;-77
2023/02/13 00:55:45;;;;;;;;;41.50;36.50;;;;;5.10;100.00;103208.69;5018889;28;45438;-77
2023/02/13 00:58:11;;;;;;;;;41.25;30.25;;;;;5.09;100.00;103196.63;5036435;28;45416;-77
2023/02/13 01:00:37;;;;;;;;;50.50;38.00;;;;;5.09;100.00;103204.38;5035242;28;67446;-77
2023/02/13 01:03:02;;;;;;;;;46.75;31.75;;;;;5.10;100.00;103198.38;5001843;28;45335;-77
2023/02/13 01:05:28;;;;;;;;;38.50;28.25;;;;;5.12;100.00;103201.88;5036428;28;45369;-77
2023/02/13 01:07:53;;;;;;;;;42.75;32.50;;;;;5.11;100.00;103192.41;5036061;28;45284;-77
2023/02/13 01:10:19;;;;;;;;;40.25;34.25;;;;;5.10;100.00;103190.63;5034839;28;73232;-77
2023/02/13 01:12:44;;;;;;;;;54.25;34.25;;;;;5.08;100.00;103187.13;5035953;28;45576;-77
2023/02/13 01:15:10;;;;;;;;;50.75;37.00;;;;;5.06;100.00;103191.38;5034674;28;65076;-77
2023/02/13 01:17:35;;;;;;;;;44.00;34.50;;;;;5.01;100.00;103185.16;5018180;28;45626;-77
2023/02/13 01:20:00;;;;;;;;;46.00;35.50;;;;;5.01;100.00;103186.06;5035735;28;46344;-77
2023/02/13 01:22:26;;;;;;;;;49.75;39.00;;;;;4.97;100.00;103186.75;5035994;28;45254;-77
2023/02/13 01:24:51;;;;;;;;;54.25;41.25;;;;;4.97;100.00;103188.47;5035246;28;64647;-77
2023/02/13 01:27:16;;;;;;;;;57.75;35.75;;;;;4.95;100.00;103188.41;5035068;28;60082;-77
2023/02/13 01:29:42;;;;;;;;;64.50;42.50;;;;;4.87;100.00;103176.97;5034535;28;69794;-77
2023/02/13 01:32:07;;;;;;;;;59.25;43.50;;;;;4.86;100.00;103180.38;5034669;28;65391;-77
2023/02/13 01:34:33;;;;;;;;;58.00;39.50;;;;;4.89;100.00;103183.06;5035283;28;47618;-78
2023/02/13 01:36:58;;;;;;;;;58.25;40.25;;;;;4.87;100.00;103182.13;5017039;28;66561;-79
2023/02/13 01:39:23;;;;;;;;;60.50;43.25;;;;;4.84;100.00;103182.03;5034440;28;72182;-78
2023/02/13 01:41:49;;;;;;;;;63.75;43.25;;;;;4.83;100.00;103183.72;5034674;28;70109;-78
2023/02/13 01:44:55;;;;;;;;;42.25;34.75;;;;;4.85;100.00;103188.94;5034569;28;62393;-78
2023/02/13 01:47:40;;;;;;;;;43.75;34.75;;;;;4.83;100.00;103181.16;5035449;28;45559;-78
2023/02/13 01:50:18;;;;;;;;;37.50;33.25;;;;;4.86;100.00;103182.94;5035155;28;45447;-78
2023/02/13 01:52:50;;;;;;;;;33.50;22.75;;;;;4.89;100.00;103184.78;5035180;28;45916;-78
2023/02/13 01:55:16;;;;;;;;;35.25;31.25;;;;;4.93;100.00;103187.50;5035477;28;45386;-78
2023/02/13 01:57:45;;;;;;;;;45.50;27.50;;;;;4.95;100.00;103179.81;5017540;28;45558;-78
2023/02/13 02:00:14;;;;;;;;;35.50;26.25;;;;;4.99;100.00;103192.84;5017026;28;47743;-78
2023/02/13 02:02:50;;;;;;;;;35.50;27.00;;;;;5.03;100.00;103186.09;5046922;28;45342;-78
2023/02/13 02:05:17;;;;;;;;;33.25;24.50;;;;;4.98;100.00;103174.75;5020160;28;45303;-78
2023/02/13 02:07:43;;;;;;;;;43.00;25.00;;;;;5.04;100.00;103185.28;5036199;28;45312;-78
2023/02/13 02:10:16;;;;;;;;;33.75;22.00;;;;;5.04;100.00;103183.56;5017330;28;72362;-78
2023/02/13 02:12:46;;;;;;;;;36.75;25.00;;;;;5.02;100.00;103176.59;5035534;28;45837;-78
2023/02/13 02:15:12;;;;;;;;;27.25;20.00;;;;;4.99;100.00;103176.50;5018220;28;45260;-78
2023/02/13 02:17:37;;;;;;;;;32.50;25.50;;;;;5.00;100.00;103178.25;5017756;28;45335;-78
2023/02/13 02:20:16;;;;;;;;;27.00;20.50;;;;;5.02;100.00;103182.63;5035008;28;47036;-78
2023/02/13 02:22:41;;;;;;;;;41.00;24.50;;;;;5.01;100.00;103185.16;5037729;28;45416;-78
2023/02/13 02:25:09;;;;;;;;;30.00;26.00;;;;;5.00;100.00;103181.72;5039034;28;45284;-78
2023/02/13 02:27:48;;;;;;;;;43.25;30.00;;;;;4.96;100.00;103189.28;5038471;28;45558;-78
2023/02/13 02:30:16;;;;;;;;;34.25;26.75;;;;;4.92;100.00;103188.34;5038711;28;45889;-78
2023/02/13 02:33:05;;;;;;;;;36.50;24.75;;;;;4.89;100.00;103182.19;5038412;28;45380;-78
2023/02/13 02:35:51;;;;;;;;;31.25;23.00;;;;;4.88;100.00;103183.00;5020954;28;45394;-78
2023/02/13 02:38:58;;;;;;;;;36.00;27.25;;;;;4.84;100.00;103176.84;5020854;28;45396;-78
2023/02/13 02:41:49;;;;;;;;;32.50;19.25;;;;;4.78;100.00;103172.38;4940628;28;46792;-78
2023/02/13 02:44:25;;;;;;;;;33.50;25.75;;;;;4.80;100.00;103175.00;4956989;28;45540;-78
2023/02/13 02:50:00;;;;;;;;;40.50;24.50;;;;;4.76;100.00;103166.28;4957011;28;45474;-79
2023/02/13 02:52:49;;;;;;;;;36.50;29.75;;;;;4.76;100.00;103168.00;4941488;28;46535;-78
2023/02/13 02:55:39;;;;;;;;;35.75;25.00;;;;;4.74;100.00;103169.66;4957038;28;45912;-78
2023/02/13 03:06:37;;;;;;;;;37.00;23.50;;;;;4.73;100.00;103176.47;4943291;28;45510;-78
2023/02/13 03:14:36;;;;;;;;;26.25;18.00;;;;;4.70;100.00;103176.41;5017669;28;45701;-78
2023/02/13 03:23:05;;;;;;;;;33.75;24.00;;;;;4.59;100.00;103183.75;5037266;28;45604;-78
2023/02/13 03:26:04;;;;;;;;;28.50;14.00;;;;;4.55;100.00;103181.00;5037279;28;45580;-78
2023/02/13 03:31:52;;;;;;;;;42.25;27.75;;;;;4.49;100.00;103173.94;5037615;28;45407;-78
2023/02/13 03:34:23;;;;;;;;;20.50;19.00;;;;;4.46;100.00;103166.09;5019966;28;45408;-78
2023/02/13 03:39:57;;;;;;;;;37.50;22.75;;;;;4.51;100.00;103168.81;5021865;28;45960;-78
2023/02/13 03:42:28;;;;;;;;;30.50;23.75;;;;;4.51;100.00;103166.25;5037499;28;45454;-78
2023/02/13 03:47:50;;;;;;;;;38.75;21.00;;;;;4.56;100.00;103169.88;5022026;28;45417;-78
2023/02/13 03:50:16;;;;;;;;;40.00;25.75;;;;;4.54;100.00;103167.25;5019329;28;45862;-78
2023/02/13 03:53:01;;;;;;;;;23.00;11.00;;;;;4.52;100.00;103168.88;5023160;28;56921;-78
2023/02/13 04:01:09;;;;;;;;;40.75;31.00;;;;;4.47;100.00;103160.97;5022189;28;45304;-78
2023/02/13 04:03:46;;;;;;;;;33.25;28.00;;;;;4.46;100.00;103159.25;5037392;28;45292;-79
2023/02/13 04:06:26;;;;;;;;;40.75;29.00;;;;;4.46;100.00;103160.94;5037295;28;45328;-79
2023/02/13 04:08:52;;;;;;;;;41.75;32.50;;;;;4.46;100.00;103158.38;5002200;28;46171;-79
2023/02/13 04:11:29;;;;;;;;;26.50;17.00;;;;;4.47;100.00;103166.13;5018686;28;60065;-79
2023/02/13 04:14:00;;;;;;;;;40.25;31.50;;;;;4.50;100.00;103164.50;5019488;28;45392;-79
2023/02/13 04:16:32;;;;;;;;;41.75;28.00;;;;;4.42;100.00;103159.06;5019190;28;45535;-79
2023/02/13 04:18:58;;;;;;;;;34.50;26.25;;;;;4.53;100.00;103169.75;5019266;28;45963;-78
2023/02/13 04:21:24;;;;;;;;;32.50;27.50;;;;;4.56;100.00;103173.31;5018008;28;69413;-79
2023/02/13 04:23:49;;;;;;;;;34.75;23.00;;;;;4.54;100.00;103172.41;5018116;28;68071;-79
2023/02/13 04:26:22;;;;;;;;;36.75;25.50;;;;;4.62;100.00;103172.66;5036253;28;64684;-79
2023/02/13 04:28:47;;;;;;;;;51.75;31.00;;;;;4.62;100.00;103180.41;5018885;28;46613;-79
2023/02/13 04:31:13;;;;;;;;;35.00;25.00;;;;;4.63;100.00;103175.31;5019015;28;45555;-79
2023/02/13 04:33:38;;;;;;;;;42.75;25.75;;;;;4.62;100.00;103170.97;5036579;28;45331;-79
2023/02/13 04:36:04;;;;;;;;;33.75;23.50;;;;;4.65;100.00;103171.06;5035750;28;69438;-79
2023/02/13 04:38:29;;;;;;;;;27.50;25.50;;;;;4.66;100.00;103169.34;5036351;28;46098;-79
2023/02/13 04:40:55;;;;;;;;;36.75;29.25;;;;;4.69;100.00;103168.59;5035625;28;68315;-79
2023/02/13 04:43:20;;;;;;;;;26.50;21.00;;;;;4.68;100.00;103170.31;5035622;28;66733;-78
2023/02/13 04:45:49;;;;;;;;;41.25;29.25;;;;;4.69;100.00;103177.22;5035658;28;45453;-78
2023/02/13 04:48:14;;;;;;;;;33.25;25.75;;;;;4.70;100.00;103176.41;5036507;28;45981;-78
2023/02/13 04:50:40;;;;;;;;;25.50;20.75;;;;;4.73;100.00;103170.47;5036293;28;45453;-78
2023/02/13 04:53:05;;;;;;;;;30.75;22.50;;;;;4.79;100.00;103173.22;5035035;28;64245;-78
2023/02/13 04:55:30;;;;;;;;;35.50;24.25;;;;;4.79;100.00;103166.41;5035612;28;61949;-78
2023/02/13 04:57:56;;;;;;;;;30.00;27.00;;;;;4.85;100.00;103168.31;5036105;28;46538;-78
2023/02/13 05:00:24;;;;;;;;;46.00;31.00;;;;;4.77;100.00;103155.16;5036247;28;45438;-78
2023/02/13 05:02:49;;;;;;;;;33.00;21.75;;;;;4.89;100.00;103174.44;5018369;28;45348;-78
2023/02/13 05:05:14;;;;;;;;;42.00;24.75;;;;;4.88;100.00;103162.34;5018581;28;45415;-78
2023/02/13 05:07:41;;;;;;;;;42.75;30.75;;;;;4.88;100.00;103170.09;5035598;28;46400;-77
2023/02/13 05:10:06;;;;;;;;;38.00;24.25;;;;;4.87;100.00;103173.50;5018161;28;45708;-78
2023/02/13 05:12:32;;;;;;;;;51.00;29.75;;;;;4.81;100.00;103169.91;5035863;28;45312;-78
2023/02/13 05:14:57;;;;;;;;;24.00;24.00;;;;;4.80;100.00;103170.72;5035118;28;69384;-78
2023/02/13 05:17:22;;;;;;;;;29.25;24.25;;;;;4.79;100.00;103173.22;5035746;28;45473;-78
2023/02/13 05:19:48;;;;;;;;;25.00;18.00;;;;;4.77;100.00;103169.72;5034737;28;69599;-78
2023/02/13 05:24:57;;;;;;;;;42.00;28.50;;;;;4.71;100.00;103164.38;5035939;28;45359;-78
2023/02/13 05:27:22;;;;;;;;;29.25;15.00;;;;;4.73;100.00;103170.47;5035510;28;45339;-78
2023/02/13 05:29:48;;;;;;;;;40.00;27.25;;;;;4.69;100.00;103160.88;5016886;28;71265;-78
2023/02/13 05:32:13;;;;;;;;;44.00;26.00;;;;;4.69;100.00;103160.88;5034860;28;64071;-78
2023/02/13 05:34:38;;;;;;;;;42.25;24.50;;;;;4.69;100.00;103166.88;5035268;28;50549;-78
2023/02/13 05:37:04;;;;;;;;;48.50;28.50;;;;;4.67;100.00;103170.25;5034233;28;70173;-78
2023/02/13 05:39:29;;;;;;;;;28.75;23.00;;;;;4.70;100.00;103167.75;5035657;28;45292;-78
2023/02/13 05:41:54;;;;;;;;;38.75;27.25;;;;;4.68;100.00;103166.84;5039076;28;66535;-78
2023/02/13 05:44:20;;;;;;;;;42.00;28.50;;;;;4.65;100.00;103165.91;5028331;28;67014;-78
2023/02/13 05:46:45;;;;;;;;;38.75;26.25;;;;;4.64;100.00;103165.84;5035419;28;71010;-78
2023/02/13 05:49:12;;;;;;;;;34.25;24.50;;;;;4.64;100.00;103173.59;5017994;28;45495;-77
2023/02/13 05:51:37;;;;;;;;;49.75;30.00;;;;;4.59;100.00;103170.00;5035629;28;45450;-78
2023/02/13 05:54:03;;;;;;;;;42.25;27.00;;;;;4.60;100.00;103169.16;5035701;28;45489;-78
2023/02/13 05:56:28;;;;;;;;;45.25;28.00;;;;;4.59;100.00;103167.41;5035972;28;71023;-78
2023/02/13 05:58:54;;;;;;;;;47.00;32.25;;;;;4.52;100.00;103155.13;5038479;28;69977;-78
2023/02/13 06:01:21;;;;;;;;;32.00;13.00;;;;;4.52;100.00;103166.31;5021778;28;45551;-78
2023/02/13 06:03:46;;;;;;;;;35.50;29.00;;;;;4.51;100.00;103158.50;5039302;28;45514;-78
2023/02/13 06:06:12;;;;;;;;;35.00;22.00;;;;;4.45;100.00;103154.88;5038856;28;46308;-78
2023/02/13 06:08:37;;;;;;;;;37.25;26.50;;;;;4.48;100.00;103167.03;5038365;28;65587;-78
2023/02/13 06:11:02;;;;;;;;;37.25;25.25;;;;;4.52;100.00;103168.03;5038396;28;62452;-78
2023/02/13 06:13:28;;;;;;;;;32.25;20.25;;;;;4.51;100.00;103176.56;5021201;28;45553;-78
2023/02/13 06:15:53;;;;;;;;;34.00;24.00;;;;;4.47;100.00;103171.28;5038932;28;46205;-78
2023/02/13 06:18:19;;;;;;;;;39.25;25.25;;;;;4.48;100.00;103174.78;5038074;28;64079;-78
2023/02/13 06:20:44;;;;;;;;;37.75;27.25;;;;;4.43;100.00;103174.59;5038596;28;46137;-78
2023/02/13 06:23:10;;;;;;;;;41.75;28.50;;;;;4.45;100.00;103169.50;5021063;28;45463;-78
2023/02/13 06:25:36;;;;;;;;;30.00;25.00;;;;;4.46;100.00;103177.28;5020929;28;46296;-78
2023/02/13 06:28:02;;;;;;;;;35.00;28.75;;;;;4.47;100.00;103183.31;5038810;28;46022;-78
2023/02/13 06:30:28;;;;;;;;;27.00;19.25;;;;;4.44;100.00;103185.81;5038616;28;45390;-78
2023/02/13 06:32:53;;;;;;;;;34.75;23.25;;;;;4.40;100.00;103184.81;5037910;28;61291;-78
2023/02/13 06:35:19;;;;;;;;;37.50;28.75;;;;;4.34;100.00;103179.41;5038148;28;45524;-78
2023/02/13 06:37:44;;;;;;;;;46.75;33.50;;;;;4.31;100.00;103189.66;5038391;28;45368;-78
2023/02/13 06:40:10;;;;;;;;;40.75;33.75;;;;;4.20;100.00;103171.19;5038715;28;45318;-79
2023/02/13 06:42:36;;;;;;;;;41.75;30.25;;;;;4.24;100.00;103185.09;5020495;28;45481;-78
2023/02/13 06:45:02;;;;;;;;;40.50;29.50;;;;;4.22;100.00;103189.31;5037408;28;71410;-78
2023/02/13 06:47:27;;;;;;;;;44.00;26.25;;;;;4.20;100.00;103191.81;5038238;28;45291;-78
2023/02/13 06:49:52;;;;;;;;;41.50;28.50;;;;;4.17;100.00;103193.41;5037722;28;45375;-78
2023/02/13 06:52:18;;;;;;;;;31.25;28.00;;;;;4.16;100.00;103202.84;5037713;28;52993;-78
2023/02/13 06:54:44;;;;;;;;;35.00;24.25;;;;;4.12;100.00;103193.22;5038011;28;45408;-78
2023/02/13 06:57:09;;;;;;;;;36.00;26.25;;;;;4.13;100.00;103200.16;5037347;28;58887;-78
2023/02/13 06:59:34;;;;;;;;;31.75;24.00;;;;;4.14;100.00;103199.34;5037446;28;58348;-78
2023/02/13 07:02:00;;;;;;;;;34.00;22.25;;;;;4.10;100.00;103194.00;5023268;28;45338;-78
2023/02/13 07:04:26;;;;;;;;;33.50;28.00;;;;;4.12;100.00;103211.28;5016625;28;70247;-78
2023/02/13 07:06:54;;;;;;;;;36.00;28.25;;;;;4.08;100.00;103204.25;5011748;28;46080;-79
2023/02/13 07:09:19;;;;;;;;;41.25;25.50;;;;;4.06;100.00;103205.91;5018285;28;45301;-78
2023/02/13 07:11:45;;;;;;;;;44.25;34.25;;;;;4.11;100.00;103206.94;5017136;28;58240;-78
2023/02/13 07:14:10;;;;;;;;;28.75;16.75;;;;;4.13;100.00;103199.28;5031598;28;73808;-78
2023/02/13 07:16:35;;;;;;;;;37.50;26.50;;;;;4.17;100.00;103198.56;5036412;28;61068;-78
2023/02/13 07:19:01;;;;;;;;;41.25;26.50;;;;;4.22;100.00;103215.09;5030534;28;63769;-78
2023/02/13 07:21:26;;;;;;;;;41.50;30.25;;;;;4.19;100.00;103202.94;5002667;28;68091;-78
2023/02/13 07:23:52;;;;;;;;;45.00;30.75;;;;;4.28;100.00;103204.13;5028442;28;46359;-78
2023/02/13 07:26:17;;;;;;;;;47.25;33.00;;;;;4.29;100.00;103209.34;5036267;28;71818;-78
2023/02/13 07:28:43;;;;;;;;;41.00;31.00;;;;;4.36;100.00;103219.03;5037346;28;45321;-81
2023/02/13 07:31:08;;;;;;;;;44.75;27.75;;;;;4.42;100.00;103226.13;5031935;28;45604;-81
2023/02/13 07:33:34;;;;;;;;;33.50;28.00;;;;;4.43;100.00;103231.34;5022680;28;47401;-79
2023/02/13 07:36:02;;;;;;;;;48.75;29.00;;;;;4.49;100.00;103234.97;5027614;28;45844;-80
2023/02/13 07:38:31;;;;;;;;;42.00;33.75;;;;;4.53;100.00;103231.66;5019493;28;45424;-80
2023/02/13 07:41:00;;;;;;;;;40.75;30.00;;;;;4.59;100.00;103231.91;5033475;28;45506;-81
2023/02/13 07:43:28;;;;;;;;;39.75;28.50;;;;;4.63;100.00;103232.06;5017401;28;46260;-82
2023/02/13 07:45:54;;;;;;;;;32.00;29.50;;;;;4.68;100.00;103227.06;5016940;28;45899;-86
2023/02/13 07:48:21;;;;;;;;;46.25;30.00;;;;;4.69;100.00;103222.78;5000219;28;45375;-84
2023/02/13 07:50:46;;;;;;;;;51.00;37.00;;;;;4.72;100.00;103223.78;5017208;28;45550;-84
2023/02/13 07:53:12;;;;;;;;;50.50;31.25;;;;;4.81;100.00;103223.19;5019613;28;45557;-83
2023/02/13 07:55:38;;;;;;;;;43.00;32.50;;;;;4.78;100.00;103211.06;5019903;28;45510;-84
2023/02/13 07:58:03;;;;;;;;;44.00;30.00;;;;;4.81;100.00;103213.78;5034103;28;46249;-82
2023/02/13 08:00:29;;;;;;;;;44.00;29.75;;;;;4.85;100.00;103223.38;5030662;28;45792;-82
2023/02/13 08:02:54;;;;;;;;;50.75;33.50;;;;;4.87;100.00;103231.16;5030429;28;63517;-83
2023/02/13 08:05:19;;;;;;;;;42.75;37.50;;;;;4.90;100.00;103226.09;5013504;28;61637;-83
2023/02/13 08:07:44;;;;;;;;;46.25;36.25;;;;;4.84;100.00;103219.00;5031897;28;59820;-82
2023/02/13 08:12:57;;;;;;;;;50.25;32.00;;;;;4.99;100.00;103233.28;5032081;28;45502;-82
2023/02/13 08:15:22;;;;;;;;;44.50;32.00;;;;;4.93;100.00;103210.72;5013087;28;63710;-82
2023/02/13 08:17:48;;;;;;;;;45.75;30.75;;;;;5.07;100.00;103223.22;5014510;28;45637;-83
2023/02/13 08:20:13;;;;;;;;;46.50;38.75;;;;;5.07;100.00;103218.94;5030994;28;45504;-83
2023/02/13 08:22:39;;;;;;;;;46.50;35.50;;;;;5.18;100.00;103227.94;5030745;28;69351;-83
2023/02/13 08:25:06;;;;;;;;;41.00;29.75;;;;;5.12;100.00;103209.63;5031168;28;65108;-83
2023/02/13 08:27:31;;;;;;;;;31.75;20.50;;;;;5.09;100.00;103196.63;5013451;28;45486;-83
2023/02/13 08:29:57;;;;;;;;;31.00;26.75;;;;;5.32;100.00;103224.91;5013804;28;45960;-83
2023/02/13 08:32:23;;;;;;;;;48.00;31.25;;;;;5.32;100.00;103230.94;5013703;28;46343;-83
2023/02/13 08:34:49;;;;;;;;;44.75;31.50;;;;;5.30;100.00;103209.38;5031559;28;45982;-83
2023/02/13 08:37:14;;;;;;;;;45.00;29.00;;;;;5.43;100.00;103228.72;5013663;28;45571;-83
2023/02/13 08:39:40;;;;;;;;;34.75;31.25;;;;;5.45;100.00;103226.19;5031346;28;52331;-83
2023/02/13 08:42:05;;;;;;;;;47.00;35.50;;;;;5.39;100.00;103207.09;5013344;28;45670;-83
2023/02/13 08:44:31;;;;;;;;;50.75;34.00;;;;;5.45;100.00;103215.88;5031029;28;45360;-83
2023/02/13 08:46:56;;;;;;;;;41.25;30.50;;;;;5.56;100.00;103233.44;5031536;28;46396;-83
2023/02/13 08:49:22;;;;;;;;;46.50;37.50;;;;;5.62;100.00;103231.06;5031641;28;45557;-83
2023/02/13 08:51:48;;;;;;;;;41.25;30.25;;;;;5.72;100.00;103231.34;5018044;28;45467;-83
2023/02/13 08:54:13;;;;;;;;;59.75;39.00;;;;;5.78;100.00;103239.31;5018278;28;45752;-83
2023/02/13 08:56:39;;;;;;;;;49.50;39.75;;;;;5.78;100.00;103227.25;5036087;28;45347;-83
2023/02/13 08:59:04;;;;;;;;;53.25;39.50;;;;;5.85;100.00;103230.91;5035786;28;45434;-82
2023/02/13 09:01:29;;;;;;;;;50.25;38.50;;;;;5.88;100.00;103228.41;5017432;28;66098;-83
2023/02/13 09:03:55;;;;;;;;;55.00;35.25;;;;;5.96;100.00;103228.66;5036088;28;49338;-85
2023/02/13 09:06:20;;;;;;;;;60.50;43.50;;;;;5.98;100.00;103224.41;5018263;28;57613;-86
2023/02/13 09:08:48;;;;;;;;;49.50;35.25;;;;;5.91;100.00;103205.25;5002252;28;45528;-87
2023/02/13 09:11:13;;;;;;;;;53.00;38.25;;;;;5.96;100.00;103210.56;5018771;28;46749;-86
2023/02/13 09:13:39;;;;;;;;;60.75;44.00;;;;;6.14;100.00;103225.75;5017284;28;54452;-83
2023/02/13 09:16:05;;;;;;;;;65.50;46.25;;;;;6.24;100.00;103242.41;5017959;28;45425;-82
2023/02/13 09:18:32;;;;;;;;;62.25;43.25;;;;;6.28;100.00;103241.66;5033123;28;45483;-83
2023/02/13 09:21:03;;;;;;;;;55.50;42.75;;;;;6.30;100.00;103238.31;5015699;28;45420;-83
2023/02/13 09:23:36;;;;;;;;;58.00;43.25;;;;;6.32;100.00;103238.34;5032882;28;45068;-85
2023/02/13 09:26:03;;;;;;;;;44.75;38.25;;;;;6.38;100.00;103241.09;5016894;28;45426;-84
2023/02/13 09:28:30;;;;;;;;;60.75;40.00;;;;;6.31;100.00;103227.13;4998283;28;45471;-84
2023/02/13 09:30:56;;;;;;;;;60.50;45.00;;;;;6.37;100.00;103229.91;4982074;28;46348;-85
2023/02/13 09:33:24;;;;;;;;;53.25;41.25;;;;;6.49;100.00;103241.41;5015819;28;45419;-86
2023/02/13 09:35:50;;;;;;;;;59.25;41.75;;;;;6.55;100.00;103244.16;4998825;28;45352;-85
2023/02/13 09:38:20;;;;;;;;;65.00;42.75;;;;;6.55;100.00;103232.09;5015896;28;45290;-85
2023/02/13 09:40:50;;;;;;;;;66.25;44.00;;;;;6.59;100.00;103227.88;4998129;28;48257;-85
2023/02/13 09:43:52;;;;;;;;;65.50;45.75;;;;;6.76;100.00;103244.78;4997682;28;45779;-85
2023/02/13 09:46:52;;;;;;;;;57.50;40.50;;;;;6.79;100.00;103231.03;4920048;28;45696;-85
2023/02/13 09:49:19;;;;;;;;;55.25;39.50;;;;;6.90;100.00;103227.00;4916528;28;45513;-85
2023/02/13 09:51:49;;;;;;;;;63.25;43.75;;;;;6.99;100.00;103228.97;4938368;28;47057;-85
2023/02/13 09:54:18;;;;;;;;;58.50;43.00;;;;;6.95;100.00;103209.88;4938526;28;45860;-85
2023/02/13 09:56:48;;;;;;;;;57.25;41.25;;;;;7.22;100.00;103247.66;4938308;28;45402;-86
2023/02/13 09:59:17;;;;;;;;;40.75;31.25;;;;;7.23;100.00;103240.78;4954691;28;45461;-85
2023/02/13 10:01:48;;;;;;;;;50.50;40.00;;;;;7.09;100.00;103199.00;4954524;28;45357;-85
2023/02/13 10:04:29;;;;;;;;;52.00;39.25;;;;;7.45;100.00;103243.06;4938653;28;45514;-85
2023/02/13 10:07:04;;;;;;;;;56.75;44.50;;;;;7.29;100.00;103204.66;4955099;28;45509;-89
2023/02/13 10:10:10;;;;;;;;;50.75;41.25;;;;;7.42;100.00;103222.25;4955445;28;45483;-87
2023/02/13 10:13:22;;;;;;;;;52.00;40.00;;;;;7.67;100.00;103241.88;4937400;28;48178;-85
2023/02/13 10:16:11;;;;;;;;;51.75;41.25;;;;;7.70;100.00;103233.28;4981001;28;46057;-85
2023/02/13 10:18:58;;;;;;;;;54.50;41.00;;;;;7.91;100.00;103238.94;5014798;28;45393;-86
2023/02/13 10:21:37;;;;;;;;;58.75;41.75;;;;;7.78;100.00;103198.00;4981465;28;45332;-86
2023/02/13 10:24:14;;;;;;;;;61.75;44.00;;;;;8.13;100.00;103234.22;4997593;28;46184;-86
2023/02/13 10:26:42;;;;;;;;;65.75;43.25;;;;;8.15;100.00;103211.75;4981053;28;45814;-87
2023/02/13 10:32:15;;;;;;;;;53.50;41.50;;;;;8.44;100.00;103233.16;5000599;28;45613;-86
2023/02/13 10:34:43;;;;;;;;;55.25;40.50;;;;;8.46;100.00;103215.88;4997565;28;46117;-87
2023/02/13 10:37:15;;;;;;;;;61.50;43.00;;;;;8.59;100.00;103216.13;5015683;28;45275;-87
2023/02/13 10:39:45;;;;;;;;;56.25;40.50;;;;;8.76;100.00;103225.09;5014732;28;45387;-87
2023/02/13 10:42:23;;;;;;;;;49.75;42.00;;;;;8.82;100.00;103227.84;4981648;28;45467;-86
2023/02/13 10:45:07;;;;;;;;;45.00;32.50;;;;;8.93;100.00;103228.00;5001964;28;48109;-87
2023/02/13 10:48:03;;;;;;;;;53.25;40.50;;;;;9.01;100.00;103228.16;5018962;28;45363;-88
2023/02/13 10:51:01;;;;;;;;;50.50;40.00;;;;;9.14;100.00;103217.13;5033989;28;45362;-87
2023/02/13 10:53:30;;;;;;;;;42.50;33.75;;;;;9.22;100.00;103212.06;5015146;28;45384;-88
2023/02/13 10:56:22;;;;;;;;;46.75;35.00;;;;;9.32;100.00;103213.06;5004472;28;47209;-86
2023/02/13 10:59:13;;;;;;;;;48.75;32.75;;;;;9.48;100.00;103217.66;5021061;28;45698;-87
2023/02/13 11:01:48;;;;;;;;;49.25;34.75;;;;;9.64;100.00;103208.38;5021180;28;45423;-86
2023/02/13 11:04:26;;;;;;;;;55.25;38.50;;;;;9.56;100.00;103163.16;5020895;28;45315;-87
2023/02/13 11:06:59;;;;;;;;;44.00;33.25;;;;;9.86;100.00;103187.00;5022169;28;46313;-87
2023/02/13 11:09:25;;;;;;;;;47.25;36.50;;;;;9.99;100.00;103180.25;5027356;28;45364;-85
2023/02/13 11:11:58;;;;;;;;;41.75;35.00;;;;;10.28;100.00;103188.38;5050989;28;45272;-87
2023/02/13 11:14:55;;;;;;;;;55.75;39.00;;;;;10.34;100.00;103158.97;5005450;28;45604;-87
2023/02/13 11:17:22;;;;;;;;;42.00;35.00;;;;;10.51;100.00;103161.78;5037173;28;45548;-85
2023/02/13 11:19:50;;;;;;;;;44.75;32.50;;;;;10.75;100.00;103165.44;5018622;28;45799;-83
2023/02/13 11:22:41;;;;;;;;;46.50;34.00;;;;;10.95;100.00;103155.19;5020474;28;45446;-84
2023/02/13 11:25:30;;;;;;;;;51.25;35.00;;;;;11.33;100.00;103199.81;5037433;28;45377;-84
2023/02/13 11:28:12;;;;;;;;;44.75;29.50;;;;;11.62;100.00;103199.13;5035712;28;46282;-84
2023/02/13 11:30:40;;;;;;;;;43.00;35.75;;;;;11.87;100.00;103149.66;5015508;28;45352;-84
2023/02/13 11:33:23;;;;;;;;;41.50;31.25;;;;;13.62;100.00;103177.75;5019158;28;54466;-84
2023/02/13 11:35:48;;;;;;;;;44.50;31.00;;;;;15.68;100.00;103171.06;5019403;28;45501;-83
2023/02/13 11:38:19;;;;;;;;;38.00;33.25;;;;;17.71;100.00;103157.34;5037040;28;45391;-84
2023/02/13 11:40:50;;;;;;;;;46.50;32.25;;;;;19.68;100.00;103156.97;5037248;28;45334;-84
2023/02/13 11:43:28;;;;;;;;;36.75;30.00;;;;;21.24;100.00;103156.41;5037423;28;45280;-84
2023/02/13 11:46:17;;;;;;;;;40.25;28.00;;;;;22.87;100.00;103153.69;5019218;28;45675;-83
2023/02/13 11:48:43;;;;;;;;;42.50;32.25;;;;;24.09;95.24;103157.94;5002622;28;46450;-85
2023/02/13 11:51:08;;;;;;;;;32.25;28.00;;;;;24.97;92.36;103148.25;5019178;28;45485;-84
2023/02/13 11:53:38;;;;;;;;;38.75;33.00;;;;;25.88;86.79;103170.06;5018567;28;48309;-85
2023/02/13 11:56:07;;;;;;;;;35.00;29.25;;;;;26.61;82.82;103166.84;5018927;28;48704;-82
2023/02/13 11:58:32;;;;;;;;;33.00;28.75;;;;;27.30;84.35;103164.50;5036470;28;45796;-82
2023/02/13 12:01:18;;;;;;;;;31.00;28.50;;;;;27.93;78.34;103158.72;5018859;28;45936;-83
2023/02/13 12:03:43;;;;;;;;;30.75;24.25;;;;;28.16;69.93;103162.59;5037073;28;45387;-83
2023/02/13 12:06:15;;;;;;;;;36.50;29.50;;;;;28.46;68.13;103166.00;5038338;28;47022;-85
2023/02/13 12:08:43;;;;;;;;;28.75;26.00;;;;;28.73;70.86;103144.53;5019632;28;47449;-85